createdAt,value
2017-10-26T00:00:49.522Z,11.93
2017-10-26T00:03:17.991Z,11.92
2017-10-26T00:05:46.437Z,11.88
2017-10-26T00:08:15.662Z,11.86
2017-10-26T00:10:44.103Z,11.81
2017-10-26T00:13:12.574Z,11.83
2017-10-26T00:15:41.026Z,11.85
2017-10-26T00:18:09.494Z,11.85
2017-10-26T00:20:37.938Z,11.81
2017-10-26T00:23:07.170Z,11.79
2017-10-26T00:25:35.670Z,11.77
2017-10-26T00:28:04.163Z,11.74
2017-10-26T00:30:32.631Z,11.69
2017-10-26T00:33:01.064Z,11.67
2017-10-26T00:35:30.418Z,11.62
2017-10-26T00:37:58.866Z,11.58
2017-10-26T00:40:28.098Z,11.61
2017-10-26T00:42:56.538Z,11.62
2017-10-26T00:45:25.770Z,11.65
2017-10-26T00:47:54.227Z,11.67
2017-10-26T00:50:23.463Z,11.68
2017-10-26T00:52:52.343Z,11.69
2017-10-26T00:55:20.826Z,11.67
2017-10-26T00:57:49.312Z,11.67
2017-10-26T01:00:17.798Z,11.62
2017-10-26T01:02:46.247Z,11.59
2017-10-26T01:05:15.576Z,11.60
2017-10-26T01:07:44.179Z,11.56
2017-10-26T01:10:12.642Z,11.55
2017-10-26T01:12:41.130Z,11.54
2017-10-26T01:15:09.590Z,11.56
2017-10-26T01:17:38.095Z,11.53
2017-10-26T01:20:06.579Z,11.49
2017-10-26T01:22:35.059Z,11.46
2017-10-26T01:25:03.530Z,11.43
2017-10-26T01:27:31.982Z,11.38
2017-10-26T01:30:01.216Z,11.37
2017-10-26T01:32:29.680Z,11.35
2017-10-26T01:34:58.187Z,11.36
2017-10-26T01:37:26.673Z,11.32
2017-10-26T01:39:55.150Z,11.28
2017-10-26T01:42:23.625Z,11.24
2017-10-26T01:44:52.114Z,11.22
2017-10-26T01:47:20.689Z,11.20
2017-10-26T01:49:49.130Z,11.19
2017-10-26T01:52:18.357Z,11.16
2017-10-26T01:54:46.863Z,11.15
2017-10-26T01:57:15.321Z,11.14
2017-10-26T01:59:43.758Z,11.13
2017-10-26T02:02:13.026Z,11.13
2017-10-26T02:04:41.500Z,11.12
2017-10-26T02:07:09.960Z,11.07
2017-10-26T02:09:38.461Z,11.05
2017-10-26T02:12:06.927Z,11.02
2017-10-26T02:14:35.394Z,10.97
2017-10-26T02:17:04.610Z,10.96
2017-10-26T02:19:33.073Z,10.94
2017-10-26T02:22:02.318Z,10.90
2017-10-26T02:24:30.782Z,10.90
2017-10-26T02:26:59.274Z,10.93
2017-10-26T02:29:45.475Z,11.00
2017-10-26T02:32:13.952Z,10.99
2017-10-26T02:34:42.441Z,11.01
2017-10-26T02:37:10.921Z,11.06
2017-10-26T02:39:39.385Z,11.10
2017-10-26T02:42:07.882Z,11.13
2017-10-26T02:44:36.346Z,11.17
2017-10-26T02:47:04.781Z,11.17
2017-10-26T02:49:33.252Z,11.20
2017-10-26T02:52:01.813Z,11.23
2017-10-26T02:54:30.296Z,11.25
2017-10-26T02:56:58.773Z,11.27
2017-10-26T02:59:27.214Z,11.30
2017-10-26T03:01:56.556Z,11.35
2017-10-26T03:04:25.048Z,11.37
2017-10-26T03:06:53.509Z,11.37
2017-10-26T03:09:22.002Z,11.40
2017-10-26T03:11:50.471Z,11.45
2017-10-26T03:14:18.917Z,11.47
2017-10-26T03:16:48.154Z,11.49
2017-10-26T03:19:16.589Z,11.45
2017-10-26T03:21:45.059Z,11.46
2017-10-26T03:24:13.514Z,11.47
2017-10-26T03:26:41.978Z,11.43
2017-10-26T03:29:10.413Z,11.45
2017-10-26T03:31:38.886Z,11.44
2017-10-26T03:34:07.336Z,11.42
2017-10-26T03:36:35.889Z,11.39
2017-10-26T03:39:05.091Z,11.37
2017-10-26T03:41:33.538Z,11.34
2017-10-26T03:44:02.001Z,11.30
2017-10-26T03:46:30.441Z,11.28
2017-10-26T03:48:58.907Z,11.24
2017-10-26T03:51:28.150Z,11.22
2017-10-26T03:53:56.614Z,11.19
2017-10-26T03:56:25.061Z,11.16
2017-10-26T03:58:54.298Z,11.16
2017-10-26T04:01:22.796Z,11.14
2017-10-26T04:03:51.370Z,11.16
2017-10-26T04:06:19.860Z,11.18
2017-10-26T04:08:48.438Z,11.20
2017-10-26T04:11:16.885Z,11.21
2017-10-26T04:13:46.231Z,11.23
2017-10-26T04:16:14.669Z,11.20
2017-10-26T04:18:43.893Z,11.18
2017-10-26T04:21:12.337Z,11.16
2017-10-26T04:23:41.793Z,11.15
2017-10-26T04:26:10.271Z,11.14
2017-10-26T04:28:38.818Z,11.12
2017-10-26T04:31:08.051Z,11.12
2017-10-26T04:33:36.511Z,11.11
2017-10-26T04:36:05.018Z,11.09
2017-10-26T04:38:33.459Z,11.08
2017-10-26T04:41:02.695Z,11.06
2017-10-26T04:43:31.134Z,11.05
2017-10-26T04:46:00.373Z,11.06
2017-10-26T04:48:28.821Z,11.06
2017-10-26T04:50:58.061Z,11.07
2017-10-26T04:53:26.541Z,11.05
2017-10-26T04:55:55.133Z,11.06
2017-10-26T04:58:23.585Z,11.05
2017-10-26T05:00:52.814Z,11.04
2017-10-26T05:03:21.267Z,11.04
2017-10-26T05:05:49.730Z,11.04
2017-10-26T05:08:18.939Z,11.03
2017-10-26T05:10:48.171Z,11.03
2017-10-26T05:13:16.604Z,11.04
2017-10-26T05:15:45.062Z,11.03
2017-10-26T05:18:13.506Z,11.01
2017-10-26T05:20:41.997Z,11.02
2017-10-26T05:23:10.488Z,11.02
2017-10-26T05:25:38.942Z,11.01
2017-10-26T05:28:07.389Z,11.02
2017-10-26T05:30:35.838Z,11.03
2017-10-26T05:33:04.297Z,11.06
2017-10-26T05:35:32.742Z,11.04
2017-10-26T05:38:01.975Z,11.05
2017-10-26T05:40:30.413Z,11.05
2017-10-26T05:42:58.886Z,11.05
2017-10-26T05:45:27.334Z,11.04
2017-10-26T05:47:55.819Z,11.06
2017-10-26T05:50:24.288Z,11.05
2017-10-26T05:52:52.760Z,11.06
2017-10-26T05:55:21.201Z,11.06
2017-10-26T05:57:49.674Z,11.08
2017-10-26T06:00:18.118Z,11.06
2017-10-26T06:02:46.703Z,11.05
2017-10-26T06:05:15.153Z,11.06
2017-10-26T06:07:44.390Z,11.07
2017-10-26T06:10:12.854Z,11.06
2017-10-26T06:12:41.288Z,11.07
2017-10-26T06:15:09.759Z,11.08
2017-10-26T06:17:38.197Z,11.09
2017-10-26T06:20:06.657Z,11.10
2017-10-26T06:22:35.891Z,11.11
2017-10-26T06:25:04.349Z,11.14
2017-10-26T06:27:33.569Z,11.16
2017-10-26T06:30:02.035Z,11.17
2017-10-26T06:32:30.537Z,11.18
2017-10-26T06:34:59.001Z,11.20
2017-10-26T06:37:27.443Z,11.20
2017-10-26T06:39:55.916Z,11.21
2017-10-26T06:42:24.353Z,11.25
2017-10-26T06:44:52.798Z,11.25
2017-10-26T06:47:22.145Z,11.25
2017-10-26T06:49:50.589Z,11.26
2017-10-26T06:52:19.822Z,11.31
2017-10-26T06:54:48.279Z,11.33
2017-10-26T06:57:17.510Z,11.37
2017-10-26T06:59:45.953Z,11.40
2017-10-26T07:02:15.177Z,11.42
2017-10-26T07:04:43.615Z,11.41
2017-10-26T07:07:12.082Z,11.46
2017-10-26T07:09:40.525Z,11.46
2017-10-26T07:12:09.014Z,11.48
2017-10-26T07:14:37.449Z,11.48
2017-10-26T07:17:06.803Z,11.49
2017-10-26T07:19:35.254Z,11.54
2017-10-26T07:22:03.744Z,11.56
2017-10-26T07:24:32.186Z,11.58
2017-10-26T07:27:00.624Z,11.63
2017-10-26T07:29:29.115Z,11.61
2017-10-26T07:31:57.562Z,11.67
2017-10-26T07:34:26.055Z,11.70
2017-10-26T07:36:54.508Z,11.71
2017-10-26T07:39:23.758Z,11.74
2017-10-26T07:41:52.242Z,11.77
2017-10-26T07:44:20.710Z,11.84
2017-10-26T07:46:49.150Z,11.87
2017-10-26T07:49:18.503Z,11.88
2017-10-26T07:51:46.940Z,11.92
2017-10-26T07:54:16.170Z,11.90
2017-10-26T07:56:44.618Z,11.97
2017-10-26T07:59:13.845Z,12.05
2017-10-26T08:01:42.293Z,12.04
2017-10-26T08:04:11.532Z,12.13
2017-10-26T08:06:40.022Z,12.16
2017-10-26T08:09:08.486Z,12.14
2017-10-26T08:11:36.993Z,12.13
2017-10-26T08:14:05.458Z,12.17
2017-10-26T08:16:33.959Z,12.28
2017-10-26T08:19:02.451Z,12.35
2017-10-26T08:21:30.921Z,12.41
2017-10-26T08:23:59.366Z,12.43
2017-10-26T08:26:28.699Z,12.48
2017-10-26T08:28:57.186Z,12.47
2017-10-26T08:31:25.721Z,12.50
2017-10-26T08:33:55.040Z,12.56
2017-10-26T08:36:24.366Z,12.63
2017-10-26T08:38:52.849Z,12.57
2017-10-26T08:41:21.313Z,12.61
2017-10-26T08:43:49.759Z,12.66
2017-10-26T08:46:18.217Z,12.70
2017-10-26T08:48:46.658Z,12.79
2017-10-26T08:51:15.122Z,12.92
2017-10-26T08:53:44.362Z,12.96
2017-10-26T08:56:12.845Z,13.08
2017-10-26T08:58:41.294Z,13.24
2017-10-26T09:01:09.802Z,13.27
2017-10-26T09:03:38.394Z,13.35
2017-10-26T09:06:06.833Z,13.60
2017-10-26T09:08:36.057Z,13.52
2017-10-26T09:11:04.625Z,13.72
2017-10-26T09:13:33.858Z,13.61
2017-10-26T09:16:02.297Z,13.67
2017-10-26T09:18:31.521Z,13.66
2017-10-26T09:20:59.961Z,13.60
2017-10-26T09:23:28.435Z,13.59
2017-10-26T09:25:56.881Z,13.62
2017-10-26T09:28:25.343Z,13.56
2017-10-26T09:30:53.782Z,13.67
2017-10-26T09:33:40.705Z,13.69
2017-10-26T09:36:09.157Z,13.76
2017-10-26T09:38:37.726Z,13.83
2017-10-26T09:41:06.176Z,13.83
2017-10-26T09:43:34.658Z,13.78
2017-10-26T09:46:03.101Z,13.70
2017-10-26T09:48:31.648Z,13.78
2017-10-26T09:51:00.098Z,13.76
2017-10-26T09:53:29.302Z,13.81
2017-10-26T09:55:58.526Z,13.76
2017-10-26T09:58:27.010Z,13.79
2017-10-26T10:00:55.473Z,13.93
2017-10-26T10:03:23.910Z,13.92
2017-10-26T10:05:52.455Z,14.01
2017-10-26T10:08:20.937Z,14.10
2017-10-26T10:10:49.419Z,14.17
2017-10-26T10:13:17.908Z,14.04
2017-10-26T10:15:46.373Z,14.09
2017-10-26T10:18:14.808Z,14.08
2017-10-26T10:20:43.270Z,14.14
2017-10-26T10:23:11.704Z,14.17
2017-10-26T10:25:40.189Z,14.17
2017-10-26T10:28:08.625Z,14.27
2017-10-26T10:30:37.067Z,14.21
2017-10-26T10:33:05.535Z,14.17
2017-10-26T10:35:33.974Z,14.18
2017-10-26T10:38:02.447Z,14.25
2017-10-26T10:40:30.906Z,14.20
2017-10-26T10:42:59.483Z,14.05
2017-10-26T10:45:27.970Z,14.03
2017-10-26T10:47:56.430Z,14.06
2017-10-26T10:50:24.928Z,14.05
2017-10-26T10:52:53.385Z,14.15
2017-10-26T10:55:22.612Z,14.14
2017-10-26T10:57:51.090Z,14.08
2017-10-26T11:00:25.037Z,13.94
2017-10-26T11:02:53.493Z,14.00
2017-10-26T11:05:21.938Z,14.05
2017-10-26T11:07:51.163Z,14.08
2017-10-26T11:10:19.651Z,14.17
2017-10-26T11:12:48.113Z,14.18
2017-10-26T11:15:16.549Z,14.15
2017-10-26T11:17:45.030Z,14.22
2017-10-26T11:20:13.478Z,14.17
2017-10-26T11:22:41.943Z,14.25
2017-10-26T11:25:10.456Z,14.26
2017-10-26T11:27:38.982Z,14.34
2017-10-26T11:30:08.198Z,14.32
2017-10-26T11:32:36.693Z,14.24
2017-10-26T11:35:05.130Z,14.32
2017-10-26T11:37:33.671Z,14.39
2017-10-26T11:40:02.129Z,14.47
2017-10-26T11:42:30.569Z,14.50
2017-10-26T11:44:59.111Z,14.58
2017-10-26T11:47:27.558Z,14.56
2017-10-26T11:49:56.777Z,14.62
2017-10-26T11:52:25.279Z,14.67
2017-10-26T11:54:53.749Z,14.65
2017-10-26T11:57:22.198Z,14.69
2017-10-26T11:59:51.428Z,14.78
2017-10-26T12:02:19.873Z,14.88
2017-10-26T12:04:49.118Z,15.00
2017-10-26T12:07:17.559Z,15.10
2017-10-26T12:09:46.785Z,15.22
2017-10-26T12:12:15.222Z,15.21
2017-10-26T12:14:43.673Z,15.15
2017-10-26T12:17:12.110Z,15.20
2017-10-26T12:19:41.449Z,15.18
2017-10-26T12:22:09.893Z,15.18
2017-10-26T12:24:39.099Z,15.32
2017-10-26T12:27:08.426Z,15.27
2017-10-26T12:29:36.915Z,15.29
2017-10-26T12:32:05.389Z,15.30
2017-10-26T12:34:33.874Z,15.31
2017-10-26T12:37:02.334Z,15.20
2017-10-26T12:39:30.839Z,15.20
2017-10-26T12:41:59.297Z,15.06
2017-10-26T12:44:27.743Z,15.00
2017-10-26T12:46:56.289Z,15.02
2017-10-26T12:49:24.730Z,14.99
2017-10-26T12:51:54.994Z,14.83
2017-10-26T12:54:23.470Z,14.78
2017-10-26T12:56:51.935Z,14.66
2017-10-26T12:59:20.382Z,14.73
2017-10-26T13:01:48.918Z,14.64
2017-10-26T13:04:17.354Z,14.67
2017-10-26T13:06:46.597Z,14.63
2017-10-26T13:09:15.029Z,14.62
2017-10-26T13:11:44.279Z,14.62
2017-10-26T13:14:12.762Z,14.84
2017-10-26T13:16:41.250Z,14.91
2017-10-26T13:19:09.844Z,14.91
2017-10-26T13:21:38.314Z,14.96
2017-10-26T13:24:06.785Z,14.94
2017-10-26T13:26:35.274Z,14.91
2017-10-26T13:29:03.737Z,15.07
2017-10-26T13:31:32.237Z,14.99
2017-10-26T13:34:00.719Z,14.80
2017-10-26T13:36:29.169Z,14.81
2017-10-26T13:38:58.714Z,14.76
2017-10-26T13:41:27.153Z,14.77
2017-10-26T13:43:56.388Z,14.83
2017-10-26T13:46:24.829Z,14.79
2017-10-26T13:48:54.062Z,14.68
2017-10-26T13:51:22.506Z,14.64
2017-10-26T13:53:51.756Z,14.58
2017-10-26T13:56:20.221Z,14.58
2017-10-26T13:58:48.722Z,14.60
2017-10-26T14:01:17.182Z,14.58
2017-10-26T14:03:45.679Z,14.57
2017-10-26T14:06:14.248Z,14.48
2017-10-26T14:08:42.697Z,14.51
2017-10-26T14:11:11.162Z,14.48
2017-10-26T14:13:39.614Z,14.44
2017-10-26T14:16:08.082Z,14.43
2017-10-26T14:18:36.576Z,14.27
2017-10-26T14:21:05.040Z,14.28
2017-10-26T14:23:33.486Z,14.25
2017-10-26T14:26:01.945Z,14.23
2017-10-26T14:28:30.386Z,14.23
2017-10-26T14:30:58.852Z,14.20
2017-10-26T14:33:28.084Z,14.11
2017-10-26T14:35:56.566Z,14.07
2017-10-26T14:38:25.151Z,14.04
2017-10-26T14:40:53.594Z,14.06
2017-10-26T14:43:22.840Z,14.09
2017-10-26T14:45:51.298Z,14.02
2017-10-26T14:48:19.766Z,14.00
2017-10-26T14:50:48.214Z,13.98
2017-10-26T14:53:16.673Z,13.91
2017-10-26T14:55:45.137Z,13.95
2017-10-26T14:58:13.722Z,13.94
2017-10-26T15:00:42.204Z,13.92
2017-10-26T15:03:10.665Z,13.87
2017-10-26T15:05:39.170Z,13.87
2017-10-26T15:08:07.747Z,13.85
2017-10-26T15:10:36.202Z,13.84
2017-10-26T15:13:05.535Z,13.82
2017-10-26T15:15:33.986Z,13.81
2017-10-26T15:18:02.462Z,13.79
2017-10-26T15:20:31.694Z,13.76
2017-10-26T15:23:00.251Z,13.70
2017-10-26T15:25:29.462Z,13.70
2017-10-26T15:27:57.966Z,13.69
2017-10-26T15:30:26.439Z,13.68
2017-10-26T15:32:54.930Z,13.67
2017-10-26T15:35:23.409Z,13.63
2017-10-26T15:37:51.885Z,13.62
2017-10-26T15:40:20.345Z,13.58
2017-10-26T15:42:49.573Z,13.50
2017-10-26T15:45:18.046Z,13.52
2017-10-26T15:47:46.501Z,13.48
2017-10-26T15:50:15.737Z,13.43
2017-10-26T15:52:44.218Z,13.37
2017-10-26T15:55:12.690Z,13.36
2017-10-26T15:57:41.138Z,13.36
2017-10-26T16:00:10.439Z,13.32
2017-10-26T16:02:39.645Z,13.34
2017-10-26T16:05:08.882Z,13.37
2017-10-26T16:07:37.375Z,13.38
2017-10-26T16:10:05.839Z,13.36
2017-10-26T16:12:34.312Z,13.32
2017-10-26T16:15:02.759Z,13.28
2017-10-26T16:17:32.082Z,13.28
2017-10-26T16:20:00.593Z,13.22
2017-10-26T16:22:29.183Z,13.19
2017-10-26T16:24:57.625Z,13.17
2017-10-26T16:27:26.957Z,13.11
2017-10-26T16:29:55.437Z,13.11
2017-10-26T16:32:24.027Z,13.12
2017-10-26T16:34:52.477Z,13.16
2017-10-26T16:37:21.710Z,13.10
2017-10-26T16:39:50.185Z,13.07
2017-10-26T16:42:18.655Z,13.03
2017-10-26T16:44:47.145Z,12.97
2017-10-26T16:47:15.614Z,12.96
2017-10-26T16:49:44.062Z,12.93
2017-10-26T16:52:13.311Z,12.90
2017-10-26T16:54:41.757Z,12.85
2017-10-26T16:57:11.100Z,12.84
2017-10-26T16:59:39.541Z,12.84
2017-10-26T17:02:08.884Z,12.82
2017-10-26T17:04:37.334Z,12.83
2017-10-26T17:07:06.585Z,12.84
2017-10-26T17:09:35.021Z,12.82
2017-10-26T17:12:03.474Z,12.82
2017-10-26T17:14:32.013Z,12.76
2017-10-26T17:17:00.459Z,12.73
2017-10-26T17:19:28.934Z,12.73
2017-10-26T17:21:58.142Z,12.72
2017-10-26T17:24:27.382Z,12.73
2017-10-26T17:26:55.832Z,12.72
2017-10-26T17:29:24.298Z,12.74
2017-10-26T17:31:53.536Z,12.73
2017-10-26T17:34:22.006Z,12.74
2017-10-26T17:36:50.451Z,12.73
2017-10-26T17:39:19.693Z,12.72
2017-10-26T17:41:48.132Z,12.73
2017-10-26T17:44:17.365Z,12.70
2017-10-26T17:46:45.812Z,12.70
2017-10-26T17:49:15.163Z,12.73
2017-10-26T17:51:43.645Z,12.73
2017-10-26T17:54:12.110Z,12.76
2017-10-26T17:56:40.611Z,12.82
2017-10-26T17:59:09.966Z,12.85
2017-10-26T18:01:39.214Z,12.89
2017-10-26T18:04:07.694Z,12.90
2017-10-26T18:06:36.163Z,12.90
2017-10-26T18:09:04.613Z,12.89
2017-10-26T18:11:33.846Z,12.88
2017-10-26T18:14:02.295Z,12.88
2017-10-26T18:16:31.531Z,12.85
2017-10-26T18:19:00.218Z,12.83
2017-10-26T18:21:28.686Z,12.78
2017-10-26T18:23:57.131Z,12.75
2017-10-26T18:26:25.670Z,12.69
2017-10-26T18:28:54.122Z,12.66
2017-10-26T18:31:22.626Z,12.66
2017-10-26T18:33:51.086Z,12.60
2017-10-26T18:36:19.555Z,12.58
2017-10-26T18:38:48.769Z,12.57
2017-10-26T18:41:17.238Z,12.57
2017-10-26T18:43:46.462Z,12.55
2017-10-26T18:46:15.067Z,12.56
2017-10-26T18:48:43.538Z,12.54
2017-10-26T18:51:12.026Z,12.55
2017-10-26T18:53:40.611Z,12.53
2017-10-26T18:56:09.057Z,12.51
2017-10-26T18:58:38.390Z,12.52
2017-10-26T19:01:06.879Z,12.51
2017-10-26T19:03:35.350Z,12.47
2017-10-26T19:06:03.835Z,12.42
2017-10-26T19:08:32.299Z,12.40
2017-10-26T19:11:00.733Z,12.38
2017-10-26T19:13:29.194Z,12.36
2017-10-26T19:15:57.667Z,12.36
2017-10-26T19:18:26.582Z,12.33
2017-10-26T19:20:55.035Z,12.31
2017-10-26T19:23:23.524Z,12.27
2017-10-26T19:25:51.966Z,12.25
2017-10-26T19:28:21.182Z,12.23
2017-10-26T19:30:49.646Z,12.21
2017-10-26T19:33:18.845Z,12.19
2017-10-26T19:35:48.078Z,12.16
2017-10-26T19:38:16.534Z,12.16
2017-10-26T19:40:45.867Z,12.14
2017-10-26T19:43:14.342Z,12.13
2017-10-26T19:45:42.807Z,12.11
2017-10-26T19:48:11.307Z,12.10
2017-10-26T19:50:39.802Z,12.09
2017-10-26T19:53:08.274Z,12.09
2017-10-26T19:55:36.729Z,12.08
2017-10-26T19:58:05.933Z,12.08
2017-10-26T20:00:34.439Z,12.06
2017-10-26T20:03:02.887Z,12.08
2017-10-26T20:05:32.114Z,12.11
2017-10-26T20:08:00.598Z,12.11
2017-10-26T20:10:29.093Z,12.15
2017-10-26T20:12:57.570Z,12.19
2017-10-26T20:15:26.262Z,12.20
2017-10-26T20:17:54.839Z,12.20
2017-10-26T20:20:23.319Z,12.22
2017-10-26T20:22:51.790Z,12.26
2017-10-26T20:25:20.230Z,12.27
2017-10-26T20:27:48.703Z,12.29
2017-10-26T20:30:17.145Z,12.37
2017-10-26T20:32:45.626Z,12.35
2017-10-26T20:35:14.109Z,12.36
2017-10-26T20:37:42.577Z,12.34
2017-10-26T20:40:11.014Z,12.33
2017-10-26T20:42:39.550Z,12.31
2017-10-26T20:45:08.039Z,12.33
2017-10-26T20:47:36.477Z,12.33
2017-10-26T20:50:11.226Z,12.29
2017-10-26T20:52:45.162Z,12.31
2017-10-26T20:58:20.554Z,12.33
2017-10-26T21:00:54.305Z,12.29
2017-10-26T21:03:28.271Z,12.29
2017-10-26T21:06:02.210Z,12.27
2017-10-26T21:08:37.082Z,12.29
2017-10-26T21:11:11.145Z,12.29
2017-10-26T21:13:45.791Z,12.27
2017-10-26T21:16:14.303Z,12.29
2017-10-26T21:18:42.888Z,12.31
2017-10-26T21:21:11.370Z,12.33
2017-10-26T21:23:39.835Z,12.33
2017-10-26T21:26:08.279Z,12.36
2017-10-26T21:28:37.527Z,12.36
2017-10-26T21:31:05.971Z,12.38
2017-10-26T21:33:40.774Z,12.39
2017-10-26T21:36:09.226Z,12.39
2017-10-26T21:38:37.667Z,12.40
2017-10-26T21:41:06.894Z,12.41
2017-10-26T21:43:35.382Z,12.43
2017-10-26T21:46:03.849Z,12.45
2017-10-26T21:48:32.297Z,12.45
2017-10-26T21:51:00.831Z,12.49
2017-10-26T21:53:29.310Z,12.50
2017-10-26T21:55:57.795Z,12.52
2017-10-26T21:58:26.243Z,12.54
2017-10-26T22:00:55.465Z,12.48
2017-10-26T22:03:23.953Z,12.44
2017-10-26T22:05:52.419Z,12.42
2017-10-26T22:08:20.867Z,12.38
2017-10-26T22:10:50.148Z,12.37
2017-10-26T22:13:18.703Z,12.40
2017-10-26T22:15:47.195Z,12.40
2017-10-26T22:18:15.665Z,12.42
2017-10-26T22:20:44.128Z,12.42
2017-10-26T22:23:12.632Z,12.43
2017-10-26T22:25:41.102Z,12.48
2017-10-26T22:28:09.554Z,12.48
2017-10-26T22:30:38.795Z,12.48
2017-10-26T22:33:07.278Z,12.48
2017-10-26T22:35:35.866Z,12.48
2017-10-26T22:38:04.314Z,12.49
2017-10-26T22:40:33.542Z,12.50
2017-10-26T22:43:01.990Z,12.49
2017-10-26T22:45:31.228Z,12.49
2017-10-26T22:47:59.694Z,12.45
2017-10-26T22:50:28.134Z,12.48
2017-10-26T22:52:56.606Z,12.47
2017-10-26T22:55:25.051Z,12.45
2017-10-26T22:57:53.538Z,12.44
2017-10-26T23:00:22.214Z,12.43
2017-10-26T23:02:50.695Z,12.42
2017-10-26T23:05:19.138Z,12.42
2017-10-26T23:07:48.368Z,12.38
2017-10-26T23:10:16.864Z,12.35
2017-10-26T23:12:45.356Z,12.31
2017-10-26T23:15:13.797Z,12.30
2017-10-26T23:17:43.031Z,12.32
2017-10-26T23:20:11.473Z,12.32
2017-10-26T23:22:40.706Z,12.34
2017-10-26T23:25:09.190Z,12.37
2017-10-26T23:27:37.671Z,12.37
2017-10-26T23:30:06.163Z,12.40
2017-10-26T23:32:34.626Z,12.39
2017-10-26T23:35:03.065Z,12.40
2017-10-26T23:37:31.530Z,12.41
2017-10-26T23:39:59.974Z,12.39
2017-10-26T23:42:28.449Z,12.42
2017-10-26T23:44:56.949Z,12.39
2017-10-26T23:47:25.535Z,12.40
2017-10-26T23:49:53.974Z,12.39
2017-10-26T23:52:23.326Z,12.37
2017-10-26T23:54:51.774Z,12.36
2017-10-26T23:57:20.276Z,12.37
2017-10-26T23:59:48.859Z,12.38
